Time;durP1;ratioP1;P1;durP2;ratioP2;P2;SDS_P1;SDS_P2;PMS_P1;PMS_P2;Temp;Humidity;BMP_temperature;BMP_pressure;BME280_temperature;BME280_humidity;BME280_pressure;Samples;Min_cycle;Max_cycle;Signal;HPM_P1;HPM_P2
2023/03/28 00:00:57;;;;;;;1.35;0.80;;;;;;;15.77;35.80;96205.84;5046840;28;20021;-33
2023/03/28 00:03:24;;;;;;;1.55;0.80;;;;;;;16.00;35.28;96204.31;5052552;28;20024;-33
2023/03/28 00:05:54;;;;;;;1.17;0.75;;;;;;;15.85;35.78;96211.69;5051821;28;20025;-33
2023/03/28 00:08:19;;;;;;;1.77;0.90;;;;;;;15.96;36.01;96211.91;5053129;28;20017;-33
2023/03/28 00:10:46;;;;;;;2.30;0.63;;;;;;;15.63;36.11;96222.94;5051037;28;20025;-33
2023/03/28 00:13:13;;;;;;;0.90;0.70;;;;;;;15.73;36.11;96226.34;5053181;28;20479;-33
2023/03/28 00:15:39;;;;;;;2.63;0.70;;;;;;;15.71;36.21;96234.25;5050381;28;20021;-33
2023/03/28 00:18:06;;;;;;;1.95;0.70;;;;;;;15.57;36.43;96226.78;5052809;28;20427;-33
2023/03/28 00:20:39;;;;;;;1.02;0.77;;;;;;;15.57;36.35;96243.16;5052825;28;20075;-33
2023/03/28 00:23:05;;;;;;;1.13;0.65;;;;;;;15.86;35.98;96251.50;5044159;28;20025;-33
2023/03/28 00:25:34;;;;;;;2.63;0.52;;;;;;;15.81;35.87;96257.63;5052598;28;20094;-33
2023/03/28 00:28:00;;;;;;;1.35;0.70;;;;;;;15.68;35.73;96262.56;5050731;28;20459;-33
2023/03/28 00:30:26;;;;;;;2.25;0.93;;;;;;;15.85;36.17;96271.84;5052243;28;20036;-33
2023/03/28 00:32:51;;;;;;;0.68;0.50;;;;;;;15.60;36.42;96277.75;5051784;28;20021;-33
2023/03/28 00:35:17;;;;;;;1.15;0.68;;;;;;;15.81;36.07;96276.75;5043496;28;20017;-33
2023/03/28 00:37:44;;;;;;;0.82;0.50;;;;;;;15.64;36.36;96283.81;5052349;28;20056;-33
2023/03/28 00:40:12;;;;;;;1.33;0.80;;;;;;;15.59;36.42;96290.66;5049579;28;20410;-33
2023/03/28 00:42:41;;;;;;;1.33;0.70;;;;;;;15.52;36.81;96284.75;5046036;28;20025;-33
2023/03/28 00:45:10;;;;;;;0.80;0.50;;;;;;;15.64;36.64;96289.28;5051006;28;20381;-33
2023/03/28 00:47:44;;;;;;;1.70;0.60;;;;;;;15.50;36.96;96290.69;5038175;28;20032;-33
2023/03/28 00:50:23;;;;;;;1.25;0.50;;;;;;;15.59;36.39;96296.13;5051353;28;20372;-33
2023/03/28 00:53:05;;;;;;;1.52;0.70;;;;;;;15.36;37.12;96297.56;5040223;28;20524;-33
2023/03/28 00:55:43;;;;;;;1.30;0.60;;;;;;;15.48;36.68;96306.03;5051009;28;20106;-33
2023/03/28 00:58:12;;;;;;;1.95;0.63;;;;;;;15.55;36.93;96316.66;5052052;28;20075;-33
2023/03/28 01:00:45;;;;;;;1.50;0.60;;;;;;;15.51;36.82;96318.78;5043032;28;20022;-33
2023/03/28 01:03:14;;;;;;;1.38;0.70;;;;;;;15.45;36.86;96322.13;5052246;28;20372;-35
2023/03/28 01:05:42;;;;;;;0.70;0.50;;;;;;;15.68;36.48;96331.66;5041164;28;20021;-33
2023/03/28 01:08:08;;;;;;;0.60;0.50;;;;;;;15.43;37.26;96330.03;5044540;28;20350;-33
2023/03/28 01:10:33;;;;;;;1.10;0.52;;;;;;;15.54;37.02;96334.25;5050179;28;20036;-33
2023/03/28 01:13:01;;;;;;;1.88;0.50;;;;;;;15.64;36.78;96333.03;5051751;28;20028;-33
2023/03/28 01:15:28;;;;;;;1.15;0.63;;;;;;;15.47;37.19;96340.78;5051564;28;20115;-33
2023/03/28 01:17:56;;;;;;;2.10;0.60;;;;;;;15.35;37.65;96344.47;5050175;28;20029;-33
2023/03/28 01:20:40;;;;;;;0.73;0.40;;;;;;;15.35;37.42;96350.69;5051594;28;20052;-33
2023/03/28 01:23:09;;;;;;;1.05;0.60;;;;;;;15.44;37.58;96347.19;5043394;28;20079;-33
2023/03/28 01:25:59;;;;;;;1.23;0.60;;;;;;;15.36;37.47;96352.22;5051467;28;20031;-33
2023/03/28 01:28:39;;;;;;;0.90;0.60;;;;;;;15.26;37.94;96349.97;5047513;28;20075;-32
2023/03/28 01:31:53;;;;;;;1.00;0.80;;;;;;;15.25;38.14;96351.19;5049079;28;20028;-33
2023/03/28 01:34:37;;;;;;;;;;;;;;;15.34;37.90;96354.66;5041805;28;20033;-33
2023/03/28 01:37:22;;;;;;;1.58;0.77;;;;;;;15.30;38.14;96358.78;5040887;28;19908;-33
2023/03/28 01:39:59;;;;;;;1.42;0.70;;;;;;;15.23;38.30;96359.81;5039126;28;20150;-33
2023/03/28 01:42:43;;;;;;;1.17;0.60;;;;;;;14.99;38.84;96367.91;5039947;28;20033;-33
2023/03/28 01:45:27;;;;;;;;;;;;;;;15.19;38.46;96369.41;5039169;28;20025;-33
2023/03/28 01:48:39;;;;;;;1.10;0.50;;;;;;;15.10;38.79;96375.63;5038398;28;19924;-33
2023/03/28 01:51:40;;;;;;;1.92;0.75;;;;;;;15.05;39.18;96376.25;4967367;28;20039;-33
2023/03/28 01:54:43;;;;;;;0.82;0.55;;;;;;;14.98;39.32;96390.97;5040663;28;20039;-34
2023/03/28 01:57:29;;;;;;;1.20;0.90;;;;;;;14.96;39.60;96389.94;5041639;28;20040;-34
2023/03/28 02:00:11;;;;;;;1.98;0.95;;;;;;;14.81;39.63;96389.78;5044918;28;20025;-33
2023/03/28 02:02:52;;;;;;;1.25;0.63;;;;;;;14.98;39.59;96392.94;5038899;28;20037;-33
2023/03/28 02:05:19;;;;;;;2.42;0.90;;;;;;;15.01;39.55;96397.50;5041378;28;20033;-34
2023/03/28 02:07:47;;;;;;;1.50;0.73;;;;;;;14.92;39.88;96390.06;5016725;28;20482;-33
2023/03/28 02:10:16;;;;;;;1.00;0.70;;;;;;;14.99;39.69;96394.47;5043473;28;20079;-33
2023/03/28 02:12:51;;;;;;;1.35;0.80;;;;;;;14.96;39.66;96385.19;5049294;28;20025;-35
2023/03/28 02:15:20;;;;;;;1.60;0.77;;;;;;;14.95;39.74;96402.06;5050483;28;20021;-33
2023/03/28 02:17:55;;;;;;;0.88;0.52;;;;;;;14.94;39.95;96397.81;5049061;28;20108;-33
2023/03/28 02:20:24;;;;;;;1.00;0.68;;;;;;;15.00;39.89;96407.66;5050639;28;20017;-33
2023/03/28 02:22:52;;;;;;;0.73;0.60;;;;;;;14.82;39.90;96406.91;5040462;28;20117;-33
2023/03/28 02:25:18;;;;;;;1.10;0.60;;;;;;;14.87;40.23;96414.47;5049407;28;20029;-35
2023/03/28 02:27:46;;;;;;;0.70;0.43;;;;;;;14.72;40.60;96414.31;5050149;28;20461;-33
2023/03/28 02:30:12;;;;;;;0.95;0.40;;;;;;;14.96;39.99;96417.25;5041406;28;20029;-33
2023/03/28 02:32:39;;;;;;;1.90;0.60;;;;;;;14.89;40.18;96422.97;5048628;28;20358;-33
2023/03/28 02:35:06;;;;;;;1.30;0.60;;;;;;;14.84;40.32;96423.56;5048856;28;20529;-34
2023/03/28 02:37:53;;;;;;;1.05;0.40;;;;;;;14.87;40.08;96436.31;5050247;28;20053;-33
2023/03/28 02:40:30;;;;;;;1.25;0.40;;;;;;;14.86;40.17;96434.81;5048892;28;20365;-33
2023/03/28 02:43:05;;;;;;;0.70;0.30;;;;;;;14.72;40.42;96438.88;5050091;28;20024;-33
2023/03/28 02:45:36;;;;;;;1.20;0.40;;;;;;;14.64;40.55;96434.94;5049989;28;20066;-33
2023/03/28 02:48:38;;;;;;;0.77;0.35;;;;;;;14.88;39.94;96433.16;5050540;28;20116;-33
2023/03/28 02:51:05;;;;;;;0.35;0.20;;;;;;;14.76;40.04;96438.75;5050267;28;20045;-33
2023/03/28 02:53:48;;;;;;;0.43;0.22;;;;;;;14.59;40.06;96439.00;5048593;28;20495;-33
2023/03/28 02:56:26;;;;;;;0.88;0.30;;;;;;;14.66;40.09;96460.56;5049696;28;20550;-33
2023/03/28 02:58:55;;;;;;;0.20;0.20;;;;;;;14.62;40.13;96446.31;5033101;28;20028;-33
2023/03/28 03:01:24;;;;;;;1.42;0.30;;;;;;;14.72;39.73;96452.53;5046195;28;20057;-33
2023/03/28 03:03:50;;;;;;;1.50;0.32;;;;;;;14.48;40.18;96454.31;5046707;28;20532;-33
2023/03/28 03:06:16;;;;;;;1.27;0.40;;;;;;;14.33;40.56;96459.56;5047909;28;20376;-34
2023/03/28 03:08:43;;;;;;;0.60;0.30;;;;;;;14.50;40.14;96441.72;5050155;28;20021;-33
2023/03/28 03:11:08;;;;;;;0.35;0.20;;;;;;;14.23;40.41;96456.00;5047862;28;20013;-33
2023/03/28 03:13:34;;;;;;;0.30;0.20;;;;;;;14.58;39.92;96448.44;5052919;28;20028;-33
2023/03/28 03:15:59;;;;;;;0.73;0.30;;;;;;;14.37;40.08;96455.47;5053350;28;20017;-33
2023/03/28 03:18:25;;;;;;;0.45;0.20;;;;;;;14.43;39.84;96463.84;5053529;28;20036;-33
2023/03/28 03:20:51;;;;;;;0.32;0.20;;;;;;;14.69;39.53;96476.06;5052551;28;20043;-33
2023/03/28 03:23:16;;;;;;;0.17;0.17;;;;;;;14.58;39.79;96453.91;5046683;28;20071;-33
2023/03/28 03:25:44;;;;;;;1.13;0.30;;;;;;;14.53;39.45;96459.94;5053705;28;20029;-33
2023/03/28 03:28:10;;;;;;;0.52;0.35;;;;;;;14.63;39.48;96461.47;5052765;28;20036;-33
2023/03/28 03:30:36;;;;;;;1.67;0.47;;;;;;;14.76;39.21;96453.16;5053216;28;20025;-33
2023/03/28 03:33:01;;;;;;;0.85;0.25;;;;;;;14.56;39.47;96458.28;5052182;28;20052;-33
2023/03/28 03:35:32;;;;;;;0.68;0.20;;;;;;;14.40;39.68;96458.53;5046983;28;20044;-33
2023/03/28 03:37:58;;;;;;;0.32;0.20;;;;;;;14.43;39.24;96463.84;5052920;28;20029;-33
2023/03/28 03:40:24;;;;;;;0.85;0.30;;;;;;;14.38;39.83;96464.41;5050089;28;20063;-32
2023/03/28 03:42:50;;;;;;;0.30;0.30;;;;;;;14.43;39.72;96465.81;5049063;28;20028;-33
2023/03/28 03:45:15;;;;;;;1.38;0.38;;;;;;;14.63;39.33;96460.72;5051941;28;20027;-33
2023/03/28 03:47:41;;;;;;;4.32;1.38;;;;;;;14.54;39.21;96475.09;5053646;28;20017;-33
2023/03/28 03:50:08;;;;;;;2.83;0.50;;;;;;;14.31;39.38;96473.66;5053117;28;20037;-33
2023/03/28 03:52:33;;;;;;;3.10;0.40;;;;;;;14.32;39.62;96480.63;5052227;28;20021;-33
2023/03/28 03:55:01;;;;;;;0.40;0.30;;;;;;;14.42;38.77;96473.25;5053431;28;20024;-33
2023/03/28 03:57:26;;;;;;;0.77;0.30;;;;;;;14.27;39.77;96477.72;5051714;28;20025;-32
2023/03/28 03:59:52;;;;;;;2.40;0.25;;;;;;;14.52;39.33;96490.41;5052800;28;20020;-33
2023/03/28 04:02:18;;;;;;;0.70;0.22;;;;;;;14.47;39.62;96491.75;5053211;28;20024;-33
2023/03/28 04:04:44;;;;;;;0.82;0.22;;;;;;;14.38;39.14;96499.88;5051280;28;20026;-32
2023/03/28 04:07:10;;;;;;;0.60;0.50;;;;;;;14.48;39.11;96498.72;5053084;28;20025;-34
2023/03/28 04:09:36;;;;;;;0.30;0.25;;;;;;;14.42;39.08;96506.00;5051240;28;20083;-33
2023/03/28 04:12:02;;;;;;;2.78;0.40;;;;;;;14.57;39.00;96509.69;5052934;28;20025;-33
2023/03/28 04:14:27;;;;;;;0.40;0.25;;;;;;;14.22;39.56;96494.66;5052760;28;20031;-33
2023/03/28 04:16:52;;;;;;;1.52;0.40;;;;;;;14.51;39.11;96507.97;5050638;28;20240;-33
2023/03/28 04:19:18;;;;;;;1.58;0.30;;;;;;;14.56;38.70;96505.44;5040082;28;20377;-33
2023/03/28 04:21:46;;;;;;;0.20;0.20;;;;;;;14.39;39.20;96520.50;5049114;28;20036;-34
2023/03/28 04:24:14;;;;;;;0.50;0.20;;;;;;;14.41;38.87;96520.84;5045423;28;20074;-32
2023/03/28 04:26:41;;;;;;;0.63;0.40;;;;;;;14.34;38.90;96515.63;5052763;28;20056;-33
2023/03/28 04:29:08;;;;;;;0.57;0.50;;;;;;;14.25;39.34;96523.75;5042573;28;20072;-32
2023/03/28 04:31:34;;;;;;;1.02;0.60;;;;;;;14.55;38.37;96520.28;5052827;28;20036;-33
2023/03/28 04:34:02;;;;;;;4.07;1.80;;;;;;;14.28;38.72;96522.88;5050719;28;20372;-33
2023/03/28 04:36:28;;;;;;;4.30;1.17;;;;;;;14.21;38.65;96525.88;5052611;28;20032;-33
2023/03/28 04:38:57;;;;;;;1.95;1.00;;;;;;;14.27;39.31;96524.09;5052574;28;20480;-33
2023/03/28 04:41:24;;;;;;;3.67;1.13;;;;;;;14.21;39.29;96528.63;5044021;28;20067;-32
2023/03/28 04:43:51;;;;;;;5.22;1.00;;;;;;;14.03;39.88;96545.63;5052459;28;20052;-33
2023/03/28 04:46:16;;;;;;;0.85;0.40;;;;;;;14.02;39.69;96544.09;5050591;28;20020;-32
2023/03/28 04:48:42;;;;;;;4.00;0.50;;;;;;;13.88;40.03;96545.38;5052140;28;20396;-32
2023/03/28 04:51:08;;;;;;;1.10;0.40;;;;;;;14.18;39.85;96551.31;5052392;28;20036;-33
2023/03/28 04:53:35;;;;;;;0.73;0.35;;;;;;;14.41;39.69;96559.03;5051124;28;20033;-33
2023/03/28 04:56:01;;;;;;;0.70;0.30;;;;;;;14.45;39.47;96559.69;5052212;28;20021;-33
2023/03/28 04:58:26;;;;;;;1.60;0.30;;;;;;;14.44;39.32;96563.59;5050156;28;20484;-33
2023/03/28 05:00:52;;;;;;;3.83;0.30;;;;;;;14.20;39.38;96568.00;5052190;28;20024;-33
2023/03/28 05:03:23;;;;;;;0.95;0.30;;;;;;;14.02;39.51;96569.41;5052100;28;20022;-32
2023/03/28 05:05:51;;;;;;;1.92;0.50;;;;;;;14.09;39.18;96582.03;5050703;28;20111;-32
2023/03/28 05:08:21;;;;;;;1.20;0.30;;;;;;;14.15;39.47;96584.94;5050771;28;20036;-32
2023/03/28 05:10:46;;;;;;;1.95;0.40;;;;;;;14.26;38.93;96590.75;5050189;28;20021;-33
2023/03/28 05:13:13;;;;;;;2.05;0.40;;;;;;;13.92;39.29;96592.38;5044933;28;20050;-32
2023/03/28 05:15:38;;;;;;;1.23;0.38;;;;;;;14.13;38.69;96603.72;5048107;28;20029;-33
2023/03/28 05:18:04;;;;;;;0.55;0.30;;;;;;;14.16;38.96;96608.28;5051723;28;20021;-33
2023/03/28 05:20:30;;;;;;;2.97;0.40;;;;;;;14.02;38.78;96609.56;5051663;28;20028;-32
2023/03/28 05:22:56;;;;;;;0.82;0.30;;;;;;;14.19;38.48;96629.22;5042532;28;20036;-32
2023/03/28 05:25:22;;;;;;;0.30;0.20;;;;;;;13.96;39.21;96625.72;5050292;28;20021;-32
2023/03/28 05:27:48;;;;;;;0.80;0.35;;;;;;;14.05;38.62;96625.03;5050863;28;20025;-32
2023/03/28 05:30:14;;;;;;;2.03;0.35;;;;;;;14.08;38.62;96635.06;5043044;28;20032;-33
2023/03/28 05:32:39;;;;;;;0.45;0.20;;;;;;;14.04;38.55;96639.88;5051546;28;20020;-33
2023/03/28 05:35:07;;;;;;;1.00;0.50;;;;;;;13.96;38.96;96654.97;5049723;28;20024;-33
2023/03/28 05:37:33;;;;;;;1.88;0.30;;;;;;;13.98;38.72;96658.00;5051365;28;20078;-33
2023/03/28 05:39:58;;;;;;;4.13;0.75;;;;;;;14.08;38.59;96656.13;5046713;28;20030;-33
2023/03/28 05:42:24;;;;;;;1.13;0.40;;;;;;;13.81;38.79;96660.13;5034861;28;20030;-32
2023/03/28 05:44:50;;;;;;;1.35;0.32;;;;;;;13.88;38.79;96665.34;5051150;28;20021;-33
2023/03/28 05:47:16;;;;;;;2.70;0.60;;;;;;;13.95;38.58;96670.56;5042762;28;20075;-33
2023/03/28 05:49:41;;;;;;;1.92;0.40;;;;;;;13.86;38.67;96669.69;5050810;28;20041;-32
2023/03/28 05:52:07;;;;;;;1.35;0.40;;;;;;;14.14;38.64;96679.63;5050749;28;20074;-32
2023/03/28 05:54:32;;;;;;;2.15;0.40;;;;;;;13.86;38.69;96678.66;5049601;28;20025;-32
2023/03/28 05:56:57;;;;;;;1.95;0.47;;;;;;;13.98;38.96;96680.56;5050990;28;20032;-33
2023/03/28 05:59:23;;;;;;;0.80;0.38;;;;;;;13.98;38.52;96691.47;5049749;28;20036;-33
2023/03/28 06:01:51;;;;;;;1.00;0.50;;;;;;;14.19;38.42;96690.00;5050779;28;20017;-32
2023/03/28 06:04:18;;;;;;;2.30;0.40;;;;;;;13.95;38.28;96692.38;5043999;28;20021;-33
2023/03/28 06:06:44;;;;;;;0.63;0.47;;;;;;;13.98;37.78;96694.19;5049022;28;20766;-33
2023/03/28 06:09:10;;;;;;;1.80;0.88;;;;;;;14.06;37.94;96691.25;5050402;28;20024;-33
2023/03/28 06:11:35;;;;;;;1.13;0.40;;;;;;;14.13;37.28;96699.16;5049469;28;20017;-32
2023/03/28 06:14:01;;;;;;;3.47;1.30;;;;;;;14.08;37.73;96711.41;5050085;28;20020;-33
2023/03/28 06:16:26;;;;;;;1.10;0.40;;;;;;;14.09;37.68;96706.72;5050464;28;20103;-33
2023/03/28 06:18:53;;;;;;;1.30;0.50;;;;;;;14.23;37.78;96711.66;5049020;28;20029;-32
2023/03/28 06:21:19;;;;;;;1.63;0.30;;;;;;;14.23;37.22;96722.56;5050614;28;20020;-33
2023/03/28 06:23:45;;;;;;;1.85;0.40;;;;;;;14.23;37.40;96719.84;5042401;28;20029;-33
2023/03/28 06:39:37;;;;;;;1.48;0.35;;;;;;;14.27;37.07;96734.91;5039088;28;20035;-32
2023/03/28 06:53:30;;;;;;;0.50;0.28;;;;;;;14.24;36.85;96760.31;5027021;28;20096;-33
2023/03/28 07:09:48;;;;;;;2.65;0.50;;;;;;;14.27;36.83;96815.97;5041967;28;20465;-33
2023/03/28 07:25:40;;;;;;;2.67;0.50;;;;;;;14.44;35.74;96825.56;5049803;28;20036;-33
2023/03/28 07:38:55;;;;;;;5.57;0.70;;;;;;;14.57;35.56;96845.41;5039815;28;20044;-33
2023/03/28 07:54:48;;;;;;;2.03;0.82;;;;;;;14.67;35.17;96887.16;5046774;28;20056;-32
2023/03/28 08:10:44;;;;;;;1.10;0.50;;;;;;;14.93;32.56;96906.97;5051200;28;20118;-33
2023/03/28 08:26:37;;;;;;;2.28;0.52;;;;;;;15.33;31.47;96937.91;5052696;28;20044;-33
2023/03/28 08:39:39;;;;;;;0.68;0.45;;;;;;;15.59;29.81;96959.66;5050991;28;20088;-33
2023/03/28 08:55:41;;;;;;;6.28;0.60;;;;;;;15.61;29.85;96973.66;5043419;28;20056;-33
2023/03/28 09:25:41;;;;;;;2.92;0.30;;;;;;;16.00;26.89;96999.56;5028988;28;20024;-33
2023/03/28 09:28:37;;;;;;;0.55;0.35;;;;;;;16.08;26.98;96998.84;5033369;28;20034;-33
2023/03/28 09:41:15;;;;;;;0.68;0.28;;;;;;;16.33;29.08;97021.75;5037949;28;20079;-34
2023/03/28 09:43:41;;;;;;;0.60;0.40;;;;;;;16.14;28.89;97020.91;5036610;28;20039;-33
2023/03/28 09:56:45;;;;;;;1.20;0.60;;;;;;;16.38;30.56;97041.09;5043936;28;20052;-33
2023/03/28 10:12:37;;;;;;;2.13;1.10;;;;;;;16.64;28.42;97040.94;5037185;28;20041;-34
2023/03/28 10:25:51;;;;;;;1.98;0.80;;;;;;;16.69;27.33;97052.03;5038183;28;20114;-33
2023/03/28 10:41:55;;;;;;;1.27;0.65;;;;;;;16.71;28.96;97071.53;5040007;28;20048;-33
2023/03/28 10:58:02;;;;;;;2.35;0.80;;;;;;;16.75;28.35;97063.19;5042603;28;20055;-33
2023/03/28 11:11:26;;;;;;;2.28;0.55;;;;;;;16.76;28.78;97076.44;5043821;28;20036;-33
2023/03/28 11:27:30;;;;;;;1.65;0.55;;;;;;;16.69;27.29;97098.59;5048605;28;20112;-32
2023/03/28 11:43:45;;;;;;;1.05;0.73;;;;;;;17.03;27.14;97096.91;5050447;28;20127;-32
2023/03/28 11:57:00;;;;;;;1.13;0.57;;;;;;;16.94;27.40;97108.59;5046735;28;20028;-33
2023/03/28 12:14:04;;;;;;;1.92;0.60;;;;;;;16.99;26.19;97088.06;5048651;28;20036;-32
2023/03/28 12:27:21;;;;;;;1.00;0.50;;;;;;;17.13;26.40;97101.97;5052981;28;20032;-33
2023/03/28 12:43:17;;;;;;;0.70;0.50;;;;;;;16.97;24.80;97124.13;5050799;28;20103;-32
2023/03/28 12:59:38;;;;;;;2.45;0.40;;;;;;;16.98;23.25;97114.69;5045079;28;20116;-33
2023/03/28 13:12:57;;;;;;;1.60;0.40;;;;;;;16.93;24.62;97114.53;5030615;28;20479;-32
2023/03/28 13:29:47;;;;;;;1.57;0.53;;;;;;;16.97;23.86;97101.44;5039046;28;20152;-32
2023/03/28 13:43:13;;;;;;;3.22;1.40;;;;;;;17.09;24.19;97114.28;5047990;28;20044;-32
2023/03/28 13:59:07;;;;;;;2.03;0.80;;;;;;;17.10;24.49;97115.78;5032670;28;20053;-32
2023/03/28 14:15:00;;;;;;;1.35;0.95;;;;;;;17.34;27.79;97125.00;5050128;28;20032;-32
2023/03/28 14:44:20;;;;;;;2.25;1.10;;;;;;;17.11;23.40;97123.56;5048789;28;20427;-33
2023/03/28 15:00:15;;;;;;;1.27;0.70;;;;;;;17.19;26.35;97127.53;5043447;28;20071;-32
2023/03/28 15:29:24;;;;;;;1.50;0.90;;;;;;;17.16;23.87;97131.22;5038036;28;20089;-32
2023/03/28 15:44:55;;;;;;;1.10;0.60;;;;;;;17.26;24.18;97129.25;5047352;28;20393;-33
2023/03/28 16:00:52;;;;;;;4.53;1.30;;;;;;;17.06;24.00;97126.91;5028626;28;20079;-32
2023/03/28 16:16:44;;;;;;;1.90;0.73;;;;;;;17.00;22.74;97130.69;5048081;28;20124;-33
2023/03/28 16:30:02;;;;;;;5.68;1.00;;;;;;;16.93;24.15;97139.97;5045242;28;20036;-33
2023/03/28 16:45:54;;;;;;;1.40;0.55;;;;;;;16.67;23.77;97157.81;5046181;28;20060;-33
2023/03/28 17:01:46;;;;;;;4.45;3.03;;;;;;;16.75;24.51;97157.06;5045459;28;20397;-33
2023/03/28 17:17:38;;;;;;;6.60;2.28;;;;;;;16.75;24.35;97168.03;5045556;28;20044;-33
2023/03/28 17:30:40;;;;;;;10.50;6.30;;;;;;;16.90;24.70;97183.94;5049873;28;20036;-33
2023/03/28 17:33:05;;;;;;;12.95;7.78;;;;;;;16.73;24.55;97178.66;5049729;28;20032;-33
2023/03/28 17:45:53;;;;;;;10.98;5.18;;;;;;;16.58;25.03;97191.31;5047819;28;20033;-33
2023/03/28 18:01:45;;;;;;;17.95;10.07;;;;;;;16.43;25.25;97190.34;5042862;28;20614;-34
2023/03/28 18:17:38;;;;;;;9.10;6.00;;;;;;;16.41;25.02;97222.88;5044674;28;20110;-32
2023/03/28 18:33:30;;;;;;;22.10;12.93;;;;;;;16.53;27.40;97260.38;5050301;28;20036;-32
2023/03/28 18:46:35;;;;;;;9.25;4.72;;;;;;;16.62;31.05;97274.16;5043291;28;20056;-33
2023/03/28 19:02:27;;;;;;;5.15;2.58;;;;;;;16.57;32.36;97282.91;5041034;28;20047;-33
2023/03/28 19:18:19;;;;;;;22.77;11.80;;;;;;;16.52;31.68;97272.53;5039501;28;20039;-33
2023/03/28 19:48:01;;;;;;;8.10;4.03;;;;;;;16.38;30.25;97309.38;5027666;28;20378;-34
2023/03/28 20:03:52;;;;;;;9.15;3.95;;;;;;;16.05;32.27;97324.59;5014103;28;20520;-33
2023/03/28 20:19:44;;;;;;;10.45;5.32;;;;;;;15.88;32.75;97354.03;5051323;28;20039;-33
2023/03/28 20:32:51;;;;;;;6.80;4.28;;;;;;;15.62;32.81;97352.50;5044964;28;20040;-33
2023/03/28 20:48:45;;;;;;;9.88;5.85;;;;;;;15.81;32.80;97351.53;5046411;28;20083;-33
2023/03/28 21:04:38;;;;;;;6.60;3.47;;;;;;;15.63;32.52;97330.19;5043401;28;20052;-33
2023/03/28 21:07:03;;;;;;;5.30;2.53;;;;;;;15.78;32.46;97328.56;5051778;28;20033;-33
2023/03/28 21:19:34;;;;;;;4.93;2.33;;;;;;;15.64;31.89;97328.22;5051950;28;20035;-33
2023/03/28 21:35:26;;;;;;;3.00;1.35;;;;;;;15.95;30.11;97337.38;5047730;28;20036;-33
2023/03/28 21:37:52;;;;;;;3.20;1.58;;;;;;;15.95;29.28;97331.91;5045903;28;20025;-33
2023/03/28 21:50:30;;;;;;;5.07;1.73;;;;;;;15.75;30.58;97356.00;5049723;28;20036;-33
2023/03/28 22:21:12;;;;;;;7.10;3.28;;;;;;;15.46;31.97;97378.69;5036788;28;20116;-33
2023/03/28 22:34:21;;;;;;;3.08;1.48;;;;;;;15.61;32.73;97370.88;5043609;28;20040;-33
2023/03/28 22:50:14;;;;;;;2.80;1.60;;;;;;;15.30;33.54;97353.44;5044533;28;20039;-33
2023/03/28 23:06:07;;;;;;;4.22;1.58;;;;;;;15.27;33.63;97359.75;5031431;28;20043;-33
2023/03/28 23:08:33;;;;;;;5.80;1.35;;;;;;;15.41;33.44;97353.88;5048653;28;20155;-33
2023/03/28 23:21:04;;;;;;;3.20;1.15;;;;;;;15.20;33.87;97349.03;5042764;28;20052;-33
2023/03/28 23:37:00;;;;;;;2.72;0.95;;;;;;;15.16;33.36;97390.13;5041013;28;20112;-34
2023/03/28 23:50:14;;;;;;;1.83;0.70;;;;;;;15.51;28.76;97368.44;5052493;28;20028;-33
